Time;durP1;ratioP1;P1;durP2;ratioP2;P2;SDS_P1;SDS_P2;PMS_P1;PMS_P2;Temp;Humidity;BMP_temperature;BMP_pressure;BME280_temperature;BME280_humidity;BME280_pressure;Samples;Min_cycle;Max_cycle;Signal;HPM_P1;HPM_P2
2023/01/27 00:00:33;;;;;;;7.82;2.88;;;;;;;8.88;58.00;102329.16;6182336;23;20062;-66
2023/01/27 00:03:00;;;;;;;13.63;3.63;;;;;;;8.84;57.95;102330.22;6181852;23;20013;-66
2023/01/27 00:05:26;;;;;;;16.77;3.47;;;;;;;8.78;57.84;102327.78;6182784;23;20028;-66
2023/01/27 00:07:57;;;;;;;12.60;4.18;;;;;;;8.74;57.92;102328.84;6181904;22;20021;-66
2023/01/27 00:10:25;;;;;;;13.93;3.58;;;;;;;8.71;57.89;102323.59;6182040;23;20396;-65
2023/01/27 00:15:36;;;;;;;11.05;3.38;;;;;;;8.68;57.93;102325.53;6182372;22;20025;-66
2023/01/27 00:18:03;;;;;;;13.02;3.53;;;;;;;8.67;58.13;102321.97;6182150;23;20020;-66
2023/01/27 00:26:05;;;;;;;11.93;4.22;;;;;;;8.61;58.18;102327.56;6181820;23;20023;-65
2023/01/27 00:28:33;;;;;;;11.98;3.67;;;;;;;8.61;58.22;102330.25;6181986;23;20041;-66
2023/01/27 00:31:00;;;;;;;15.65;4.05;;;;;;;8.61;58.14;102335.59;6181922;23;20119;-66
2023/01/27 00:33:27;;;;;;;15.73;4.05;;;;;;;8.61;58.15;102330.25;6181811;23;20032;-66
2023/01/27 00:35:58;;;;;;;13.80;3.85;;;;;;;8.61;58.31;102332.94;6157144;23;20431;-66
2023/01/27 00:38:27;;;;;;;13.13;3.85;;;;;;;8.61;58.14;102327.56;6189395;23;20084;-66
2023/01/27 00:43:39;;;;;;;12.38;3.85;;;;;;;8.59;58.39;102333.00;6181726;23;20021;-66
2023/01/27 00:46:07;;;;;;;13.27;3.95;;;;;;;8.60;58.26;102339.22;6155149;23;20096;-67
2023/01/27 00:48:34;;;;;;;12.35;4.18;;;;;;;8.60;58.07;102337.41;6155334;23;20451;-66
2023/01/27 00:51:01;;;;;;;11.07;3.88;;;;;;;8.60;58.28;102333.84;6181827;23;20023;-66
2023/01/27 00:53:29;;;;;;;12.23;3.90;;;;;;;8.58;58.19;102333.06;6181687;23;20017;-66
2023/01/27 00:55:59;;;;;;;13.82;3.95;;;;;;;8.57;58.43;102333.97;6155697;22;20045;-66
2023/01/27 00:58:27;;;;;;;9.27;4.07;;;;;;;8.57;58.59;102332.19;6182107;23;20074;-66
2023/01/27 01:00:59;;;;;;;14.10;5.20;;;;;;;8.57;58.44;102342.88;6181997;22;20021;-66
2023/01/27 01:03:30;;;;;;;8.98;4.25;;;;;;;8.56;58.26;102337.59;6181650;23;20092;-66
2023/01/27 01:05:58;;;;;;;10.80;4.68;;;;;;;8.54;58.25;102351.03;6181764;23;20017;-67
2023/01/27 01:08:25;;;;;;;16.77;5.15;;;;;;;8.53;58.40;102349.28;6155399;23;20562;-66
2023/01/27 01:10:52;;;;;;;11.88;4.55;;;;;;;8.53;58.26;102337.72;6155786;22;20028;-66
2023/01/27 01:13:20;;;;;;;15.35;4.82;;;;;;;8.53;58.43;102341.25;6181466;23;20024;-66
2023/01/27 01:15:47;;;;;;;9.60;4.10;;;;;;;8.53;58.21;102345.75;6155477;23;20440;-66
2023/01/27 01:18:14;;;;;;;13.27;4.50;;;;;;;8.53;58.19;102345.75;6155479;22;20035;-66
2023/01/27 01:20:42;;;;;;;8.43;4.40;;;;;;;8.53;58.17;102353.78;6181766;22;20070;-66
2023/01/27 01:23:10;;;;;;;12.88;4.53;;;;;;;8.52;58.54;102360.06;6181417;23;20434;-66
2023/01/27 01:25:37;;;;;;;13.82;4.82;;;;;;;8.52;58.45;102360.06;6181699;23;20051;-65
2023/01/27 01:28:06;;;;;;;11.52;4.55;;;;;;;8.53;58.34;102364.50;6155179;23;20044;-66
2023/01/27 01:30:35;;;;;;;11.20;4.38;;;;;;;8.52;58.29;102358.25;6155541;22;20032;-65
2023/01/27 01:33:03;;;;;;;11.70;4.40;;;;;;;8.53;58.27;102367.16;6155259;23;20403;-67
2023/01/27 01:35:30;;;;;;;9.15;4.78;;;;;;;8.55;58.42;102366.16;6181711;23;20013;-66
2023/01/27 01:37:57;;;;;;;12.68;4.72;;;;;;;8.55;58.38;102360.81;6155363;23;20399;-66
2023/01/27 01:40:24;;;;;;;10.15;4.53;;;;;;;8.55;58.43;102359.94;6155179;23;20017;-66
2023/01/27 01:42:55;;;;;;;9.10;4.57;;;;;;;8.53;58.34;102360.00;6155138;23;20021;-66
2023/01/27 01:45:47;;;;;;;10.95;5.05;;;;;;;8.50;58.21;102364.59;6181941;23;20045;-66
2023/01/27 01:48:20;;;;;;;11.43;5.13;;;;;;;8.50;58.26;102365.47;6181470;23;20025;-66
2023/01/27 01:50:57;;;;;;;13.60;5.22;;;;;;;8.47;58.15;102368.28;6182071;23;20339;-66
2023/01/27 01:53:32;;;;;;;16.88;5.50;;;;;;;8.46;58.32;102371.88;6154993;23;20021;-66
2023/01/27 01:56:05;;;;;;;14.50;4.90;;;;;;;8.46;58.08;102368.31;6181873;23;20018;-66
2023/01/27 01:58:33;;;;;;;11.40;5.53;;;;;;;8.44;58.03;102362.16;6154384;23;20122;-66
2023/01/27 02:01:02;;;;;;;11.27;5.30;;;;;;;8.45;58.32;102377.28;6155040;23;20021;-66
2023/01/27 02:03:31;;;;;;;10.88;5.20;;;;;;;8.45;58.23;102374.63;6181352;23;20047;-66
2023/01/27 02:05:57;;;;;;;10.88;5.10;;;;;;;8.44;58.24;102370.19;6181483;23;20321;-66
2023/01/27 02:08:29;;;;;;;10.60;5.15;;;;;;;8.41;58.05;102375.66;6181863;23;20021;-65
2023/01/27 02:10:57;;;;;;;11.23;4.97;;;;;;;8.41;58.33;102372.97;6181336;23;20424;-66
2023/01/27 02:13:23;;;;;;;13.75;5.20;;;;;;;8.40;58.20;102377.47;6181332;22;20032;-65
2023/01/27 02:15:52;;;;;;;13.20;5.10;;;;;;;8.37;58.39;102377.59;6181305;23;20017;-67
2023/01/27 02:18:19;;;;;;;10.85;5.45;;;;;;;8.36;58.18;102372.28;6181304;23;20017;-66
2023/01/27 02:20:49;;;;;;;8.85;5.40;;;;;;;8.35;58.18;102378.56;6181611;23;20013;-66
2023/01/27 02:23:39;;;;;;;11.30;4.88;;;;;;;8.35;58.20;102381.25;6154673;22;20070;-67
2023/01/27 02:26:19;;;;;;;13.88;5.35;;;;;;;8.35;58.25;102383.91;6154969;23;20108;-66
2023/01/27 02:29:11;;;;;;;9.15;4.88;;;;;;;8.34;58.15;102379.50;6155050;23;20370;-65
2023/01/27 02:31:38;;;;;;;13.73;6.10;;;;;;;8.33;58.05;102397.38;6180989;23;20448;-66
2023/01/27 02:34:10;;;;;;;12.70;6.35;;;;;;;8.32;58.04;102392.03;6154647;23;20039;-66
2023/01/27 02:36:43;;;;;;;11.25;5.63;;;;;;;8.31;58.04;102396.50;6154479;23;20027;-66
2023/01/27 02:39:14;;;;;;;12.90;6.20;;;;;;;8.32;58.28;102402.75;6152656;22;20096;-66
2023/01/27 02:41:48;;;;;;;12.50;6.68;;;;;;;8.32;58.15;102397.38;6178314;23;20448;-65
2023/01/27 02:44:15;;;;;;;11.80;5.93;;;;;;;8.33;58.06;102400.03;6152727;23;20021;-66
2023/01/27 02:46:42;;;;;;;13.32;6.55;;;;;;;8.33;58.21;102392.00;6152063;23;20060;-66
2023/01/27 02:49:09;;;;;;;11.73;6.28;;;;;;;8.34;58.13;102392.88;6152349;23;20416;-66
2023/01/27 02:51:36;;;;;;;13.88;6.28;;;;;;;8.35;58.12;102391.94;6152274;23;20064;-66
2023/01/27 02:54:04;;;;;;;13.85;5.80;;;;;;;8.35;58.22;102389.28;6151965;23;20025;-66
2023/01/27 02:56:31;;;;;;;13.18;6.38;;;;;;;8.36;58.26;102393.69;6152402;22;20028;-66
2023/01/27 02:58:57;;;;;;;14.20;6.80;;;;;;;8.37;58.30;102395.44;6178485;23;20382;-66
2023/01/27 03:01:31;;;;;;;12.30;6.88;;;;;;;8.37;58.17;102387.41;6152173;23;20021;-65
2023/01/27 03:03:59;;;;;;;11.57;6.88;;;;;;;8.36;58.29;102402.59;6152224;23;20040;-65
2023/01/27 03:06:25;;;;;;;12.30;7.80;;;;;;;8.35;58.31;102390.16;6151826;23;20025;-67
2023/01/27 03:08:52;;;;;;;15.50;7.35;;;;;;;8.34;58.34;102399.13;6152467;23;20040;-66
2023/01/27 03:12:18;;;;;;;14.75;8.23;;;;;;;8.35;58.39;102392.81;6179832;23;20013;-66
2023/01/27 03:14:07;;;;;;;14.75;8.32;;;;;;;8.35;58.41;102389.28;6153655;23;20379;-66
2023/01/27 03:19:19;;;;;;;;;;;;;;;8.34;58.28;102400.91;6154551;23;20321;-66
2023/01/27 03:21:49;;;;;;;12.68;8.57;;;;;;;8.34;58.16;102399.13;6153355;22;19923;-66
2023/01/27 03:24:17;;;;;;;17.63;9.15;;;;;;;8.32;58.41;102405.41;6153590;23;20019;-67
2023/01/27 03:26:44;;;;;;;19.85;11.23;;;;;;;8.32;58.28;102402.75;6153620;23;20025;-66
2023/01/27 03:31:59;;;;;;;14.38;9.20;;;;;;;8.31;58.54;102404.53;6153198;23;20074;-66
2023/01/27 03:34:27;;;;;;;18.35;10.35;;;;;;;8.30;58.59;102402.78;6153689;23;20021;-67
2023/01/27 03:48:05;;;;;;;15.77;10.45;;;;;;;8.27;58.73;102430.56;6179876;23;20099;-66
2023/01/27 03:50:37;;;;;;;15.45;10.95;;;;;;;8.26;58.64;102434.16;6179906;22;20362;-66
2023/01/27 03:53:04;;;;;;;15.70;10.35;;;;;;;8.26;58.69;102434.16;6180021;22;20020;-66
2023/01/27 03:55:33;;;;;;;16.40;10.73;;;;;;;8.26;58.78;102439.50;6180292;23;20288;-66
2023/01/27 03:58:13;;;;;;;18.10;11.00;;;;;;;8.26;58.84;102444.88;6179947;22;20100;-65
2023/01/27 04:00:40;;;;;;;21.33;11.20;;;;;;;8.26;58.80;102444.88;6180133;22;20017;-66
2023/01/27 04:08:36;;;;;;;19.47;11.60;;;;;;;8.20;58.68;102441.53;6179794;23;20031;-65
2023/01/27 04:14:08;;;;;;;16.58;11.02;;;;;;;8.15;58.60;102441.66;6059614;23;20090;-65
2023/01/27 04:16:37;;;;;;;16.92;10.45;;;;;;;8.14;58.77;102439.91;6157763;23;20078;-66
2023/01/27 04:19:07;;;;;;;17.55;10.73;;;;;;;8.12;58.77;102438.22;6179445;23;20017;-66
2023/01/27 04:21:34;;;;;;;17.27;11.10;;;;;;;8.11;58.80;102439.16;6179204;23;20017;-65
2023/01/27 04:24:02;;;;;;;15.15;10.73;;;;;;;8.10;58.84;102438.28;6179769;23;20023;-65
2023/01/27 04:26:33;;;;;;;17.45;12.00;;;;;;;8.10;58.95;102440.09;6179896;22;20013;-66
2023/01/27 04:29:01;;;;;;;16.08;11.18;;;;;;;8.10;58.77;102438.28;6179534;22;20444;-66
2023/01/27 04:31:28;;;;;;;19.02;11.20;;;;;;;8.10;58.72;102453.47;6180118;23;20021;-65
2023/01/27 04:33:54;;;;;;;15.48;11.15;;;;;;;8.08;58.81;102437.47;6179862;22;20032;-65
2023/01/27 04:36:21;;;;;;;14.25;10.32;;;;;;;8.09;58.92;102451.72;6179744;23;20025;-66
2023/01/27 04:38:48;;;;;;;17.85;10.75;;;;;;;8.07;58.82;102438.38;6179469;23;20021;-66
2023/01/27 04:41:14;;;;;;;17.33;11.20;;;;;;;8.09;58.85;102441.88;6153646;23;20024;-65
2023/01/27 04:43:41;;;;;;;19.42;11.43;;;;;;;8.09;58.88;102441.88;6178026;23;20344;-66
2023/01/27 04:46:08;;;;;;;18.35;12.10;;;;;;;8.10;58.95;102442.75;6177327;23;20130;-65
2023/01/27 04:48:35;;;;;;;20.08;11.95;;;;;;;8.10;58.88;102443.63;6177066;23;20086;-66
2023/01/27 04:51:01;;;;;;;19.95;12.25;;;;;;;8.08;58.93;102449.97;6178361;23;20013;-66
2023/01/27 04:53:28;;;;;;;22.75;11.35;;;;;;;8.06;59.19;102446.47;6177557;23;20021;-66
2023/01/27 04:56:02;;;;;;;17.75;11.93;;;;;;;8.05;59.01;102452.75;6178936;23;20443;-66
2023/01/27 04:58:28;;;;;;;19.23;12.35;;;;;;;8.04;59.06;102457.22;6151797;22;20384;-66
2023/01/27 05:00:55;;;;;;;17.92;12.23;;;;;;;8.03;59.06;102455.47;6179602;23;20130;-66
2023/01/27 05:03:21;;;;;;;16.05;10.82;;;;;;;8.01;59.20;102454.66;6179187;23;20360;-65
2023/01/27 05:05:48;;;;;;;17.30;11.38;;;;;;;8.01;59.17;102456.47;6179751;23;20017;-66
2023/01/27 05:08:15;;;;;;;15.23;10.65;;;;;;;8.00;59.20;102463.59;6179270;23;20020;-66
2023/01/27 05:10:43;;;;;;;16.45;10.70;;;;;;;8.02;59.17;102466.22;6179808;23;20329;-67
2023/01/27 05:13:11;;;;;;;21.00;11.98;;;;;;;8.02;59.26;102460.88;6179037;22;20325;-66
2023/01/27 05:15:37;;;;;;;18.55;12.52;;;;;;;8.02;59.12;102464.44;6179839;23;20017;-65
2023/01/27 05:18:04;;;;;;;18.42;10.75;;;;;;;8.02;59.22;102464.44;6179347;23;20024;-65
2023/01/27 05:20:31;;;;;;;15.88;11.07;;;;;;;8.01;59.26;102462.69;6179677;23;20397;-66
2023/01/27 05:23:34;;;;;;;17.45;11.70;;;;;;;8.02;59.28;102469.78;6178972;23;20071;-66
2023/01/27 05:25:44;;;;;;;20.23;11.90;;;;;;;8.03;59.25;102457.28;6179108;23;20066;-66
2023/01/27 05:28:11;;;;;;;17.77;11.25;;;;;;;8.01;59.26;102465.34;6179754;23;20485;-66
2023/01/27 05:30:38;;;;;;;17.80;11.20;;;;;;;8.00;59.29;102470.75;6179493;22;20024;-66
2023/01/27 05:33:04;;;;;;;19.30;11.82;;;;;;;7.97;59.26;102466.38;6179743;23;20017;-66
2023/01/27 05:35:32;;;;;;;18.10;11.65;;;;;;;7.96;59.46;102468.19;6179175;23;20057;-66
2023/01/27 05:37:59;;;;;;;15.50;11.43;;;;;;;7.96;59.40;102464.63;6179980;23;20032;-66
2023/01/27 05:40:26;;;;;;;16.15;11.07;;;;;;;7.97;59.39;102469.06;6179349;22;20347;-65
2023/01/27 05:42:53;;;;;;;17.85;11.70;;;;;;;8.00;59.41;102465.41;6179587;23;20436;-66
2023/01/27 05:45:19;;;;;;;15.93;11.18;;;;;;;8.04;59.54;102485.78;6178913;23;20456;-66
2023/01/27 05:47:50;;;;;;;17.08;11.45;;;;;;;8.05;59.38;102479.50;6179082;23;20017;-66
2023/01/27 05:50:17;;;;;;;18.60;11.38;;;;;;;8.06;59.41;102482.13;6179229;23;20058;-66
2023/01/27 05:52:44;;;;;;;17.83;11.65;;;;;;;8.07;59.52;102481.19;6179858;23;20040;-66
2023/01/27 05:55:11;;;;;;;16.70;12.07;;;;;;;8.08;59.38;102474.03;6179386;23;20043;-66
2023/01/27 05:57:38;;;;;;;16.60;11.73;;;;;;;8.07;59.35;102486.53;6178964;23;20024;-66
2023/01/27 06:00:05;;;;;;;14.68;11.48;;;;;;;8.08;59.47;102485.63;6179567;23;20406;-66
2023/01/27 06:02:33;;;;;;;15.77;11.27;;;;;;;8.08;59.29;102482.94;6178839;23;20048;-66
2023/01/27 06:05:00;;;;;;;15.00;11.35;;;;;;;8.09;59.33;102484.69;6179542;23;20017;-65
2023/01/27 06:07:26;;;;;;;17.75;11.88;;;;;;;8.11;59.46;102488.19;6178882;23;20052;-66
2023/01/27 06:09:53;;;;;;;16.38;11.48;;;;;;;8.14;59.39;102495.25;6179940;23;20024;-66
2023/01/27 06:12:19;;;;;;;15.70;11.75;;;;;;;8.15;59.27;102488.97;6178781;23;20440;-66
2023/01/27 06:14:46;;;;;;;15.90;10.85;;;;;;;8.14;59.28;102490.75;6180001;23;20085;-66
2023/01/27 06:17:13;;;;;;;15.20;11.18;;;;;;;8.14;59.37;102493.44;6179197;23;20100;-66
2023/01/27 06:19:39;;;;;;;21.45;11.45;;;;;;;8.16;59.39;102491.59;6180151;23;20400;-66
2023/01/27 06:22:06;;;;;;;16.10;11.60;;;;;;;8.15;59.41;102492.50;6178849;23;20017;-66
2023/01/27 06:24:33;;;;;;;17.80;11.45;;;;;;;8.16;59.44;102494.25;6179792;22;20019;-65
2023/01/27 06:26:59;;;;;;;14.82;10.88;;;;;;;8.18;59.43;102494.25;6178830;23;20335;-66
2023/01/27 06:29:26;;;;;;;14.70;11.00;;;;;;;8.18;59.40;102489.75;6178996;23;20025;-66
2023/01/27 06:31:52;;;;;;;13.02;10.15;;;;;;;8.19;59.36;102496.84;6179015;23;20017;-67
2023/01/27 06:34:19;;;;;;;14.70;11.05;;;;;;;8.19;59.21;102493.31;6179089;23;20344;-66
2023/01/27 06:36:45;;;;;;;13.82;9.98;;;;;;;8.19;59.22;102502.22;6178939;23;20343;-66
2023/01/27 06:39:12;;;;;;;14.98;10.43;;;;;;;8.20;59.10;102503.09;6153044;23;20021;-66
2023/01/27 06:41:39;;;;;;;14.40;10.35;;;;;;;8.20;59.24;102503.09;6178435;23;20017;-66
2023/01/27 06:44:06;;;;;;;15.85;10.65;;;;;;;8.20;58.99;102505.75;6152935;23;20035;-66
2023/01/27 06:46:33;;;;;;;13.85;9.95;;;;;;;8.20;59.32;102508.44;6180463;23;20337;-66
2023/01/27 06:48:59;;;;;;;14.07;9.40;;;;;;;8.19;59.09;102510.25;6180042;23;20108;-66
2023/01/27 06:51:26;;;;;;;12.15;9.48;;;;;;;8.19;59.17;102512.91;6181104;23;20055;-66
2023/01/27 06:53:52;;;;;;;11.48;9.35;;;;;;;8.20;59.16;102506.63;6181201;23;20013;-66
2023/01/27 06:56:19;;;;;;;11.77;8.73;;;;;;;8.19;59.23;102512.03;6181387;22;20448;-66
2023/01/27 06:58:45;;;;;;;10.18;8.15;;;;;;;8.18;59.16;102519.19;6189854;23;20049;-66
2023/01/27 07:01:12;;;;;;;10.15;7.28;;;;;;;8.18;59.07;102516.53;6182789;23;20062;-67
2023/01/27 07:03:39;;;;;;;11.85;8.45;;;;;;;8.18;59.11;102513.84;6154146;23;20021;-66
2023/01/27 07:06:09;;;;;;;9.30;7.43;;;;;;;8.19;59.18;102512.03;6181996;22;20041;-66
2023/01/27 07:08:40;;;;;;;8.93;7.55;;;;;;;8.19;59.01;102514.72;6180941;23;20021;-66
2023/01/27 07:11:07;;;;;;;9.88;7.10;;;;;;;8.18;59.05;102521.00;6179916;23;20505;-67
2023/01/27 07:13:34;;;;;;;9.57;6.32;;;;;;;8.18;58.96;102523.69;6180278;23;20017;-66
2023/01/27 07:16:00;;;;;;;8.25;6.18;;;;;;;8.16;59.03;102521.03;6179997;23;20017;-67
2023/01/27 07:18:27;;;;;;;8.25;6.18;;;;;;;8.17;59.07;102524.56;6180294;23;20013;-66
2023/01/27 07:20:54;;;;;;;8.15;6.15;;;;;;;8.17;58.83;102517.41;6180072;23;20444;-66
2023/01/27 07:23:20;;;;;;;9.10;6.80;;;;;;;8.20;59.05;102524.50;6179770;23;20009;-66
2023/01/27 07:25:47;;;;;;;8.13;5.78;;;;;;;8.21;58.85;102528.91;6179920;23;20017;-67
2023/01/27 07:28:13;;;;;;;8.27;5.95;;;;;;;8.21;59.05;102528.91;6179781;23;20013;-65
2023/01/27 07:30:42;;;;;;;9.02;6.15;;;;;;;8.20;59.03;102529.84;6179873;23;20009;-66
2023/01/27 07:33:10;;;;;;;7.32;6.25;;;;;;;8.20;58.79;102530.72;6180081;23;20116;-66
2023/01/27 07:35:38;;;;;;;7.25;5.90;;;;;;;8.19;58.92;102542.34;6179938;23;20024;-65
2023/01/27 07:38:06;;;;;;;8.60;6.43;;;;;;;8.19;58.82;102545.03;6179778;23;20092;-67
2023/01/27 07:40:33;;;;;;;7.97;6.35;;;;;;;8.20;58.90;102549.47;6179783;23;20386;-66
2023/01/27 07:43:01;;;;;;;7.32;6.00;;;;;;;8.20;58.79;102551.25;6179818;23;20020;-67
2023/01/27 07:45:29;;;;;;;8.43;6.30;;;;;;;8.20;58.91;102540.56;6153581;23;20124;-66
2023/01/27 07:48:00;;;;;;;7.20;5.55;;;;;;;8.20;58.70;102554.81;6179745;23;20021;-67
2023/01/27 07:50:26;;;;;;;7.35;5.80;;;;;;;8.21;58.77;102555.69;6179947;23;20027;-67
2023/01/27 07:52:53;;;;;;;8.02;5.88;;;;;;;8.20;58.70;102556.63;6180255;23;20444;-66
2023/01/27 07:55:19;;;;;;;7.65;5.90;;;;;;;8.20;58.91;102554.81;6180759;22;20013;-66
2023/01/27 07:57:46;;;;;;;8.27;5.63;;;;;;;8.21;58.98;102559.25;6180221;23;20018;-66
2023/01/27 08:00:14;;;;;;;9.02;6.05;;;;;;;8.22;58.74;102563.66;6180189;23;20517;-65
2023/01/27 08:02:41;;;;;;;9.45;6.82;;;;;;;8.24;58.89;102558.25;6180292;23;20043;-67
2023/01/27 08:05:08;;;;;;;6.70;5.35;;;;;;;8.23;58.70;102554.72;6180781;23;20074;-66
2023/01/27 08:07:34;;;;;;;7.70;5.90;;;;;;;8.24;58.86;102567.16;6180269;23;20082;-67
2023/01/27 08:10:01;;;;;;;17.15;8.70;;;;;;;8.23;58.68;102565.41;6180566;23;20017;-67
2023/01/27 08:12:27;;;;;;;8.27;5.90;;;;;;;8.23;58.67;102553.84;6180009;23;20037;-66
2023/01/27 08:14:54;;;;;;;10.13;7.45;;;;;;;8.24;58.75;102568.97;6180664;23;20071;-67
2023/01/27 08:17:20;;;;;;;8.13;5.78;;;;;;;8.25;58.73;102568.91;6180298;23;20013;-66
2023/01/27 08:19:49;;;;;;;8.18;5.63;;;;;;;8.26;58.82;102567.09;6180380;23;20025;-66
2023/01/27 08:22:19;;;;;;;10.40;6.63;;;;;;;8.26;58.71;102570.66;6180324;23;20024;-66
2023/01/27 08:24:47;;;;;;;9.80;6.97;;;;;;;8.27;58.79;102567.06;6180800;22;20013;-66
2023/01/27 08:27:15;;;;;;;6.57;5.70;;;;;;;8.27;58.78;102566.19;6180218;22;20432;-66
2023/01/27 08:29:41;;;;;;;6.00;5.25;;;;;;;8.27;58.70;102561.72;6181077;23;20504;-66
2023/01/27 08:32:09;;;;;;;6.18;4.97;;;;;;;8.26;58.67;102572.47;6180975;23;20021;-66
2023/01/27 08:34:37;;;;;;;5.65;5.13;;;;;;;8.24;58.65;102571.63;6181331;23;20040;-66
2023/01/27 08:37:05;;;;;;;10.18;6.30;;;;;;;8.25;58.58;102578.75;6181867;23;20017;-66
2023/01/27 08:39:32;;;;;;;9.75;7.75;;;;;;;8.26;58.54;102572.47;6181521;23;20059;-67
2023/01/27 08:41:59;;;;;;;10.93;7.18;;;;;;;8.30;58.75;102571.44;6180191;23;20382;-67
2023/01/27 08:44:27;;;;;;;16.15;9.95;;;;;;;8.34;58.69;102570.44;6180283;22;20031;-66
2023/01/27 08:46:54;;;;;;;10.25;6.03;;;;;;;8.38;58.62;102579.22;6180498;23;20017;-65
2023/01/27 08:49:20;;;;;;;9.48;6.15;;;;;;;8.40;58.67;102582.72;6153534;23;20483;-67
2023/01/27 08:51:47;;;;;;;7.05;5.78;;;;;;;8.43;58.49;102588.84;6179737;23;20017;-64
2023/01/27 08:54:13;;;;;;;7.20;5.25;;;;;;;8.48;58.56;102596.72;6180222;23;20025;-65
2023/01/27 08:56:40;;;;;;;5.18;4.65;;;;;;;8.50;58.57;102598.44;6179268;22;20347;-67
2023/01/27 08:59:06;;;;;;;5.72;4.70;;;;;;;8.54;58.61;102597.41;6180038;23;20021;-66
2023/01/27 09:01:33;;;;;;;9.27;5.70;;;;;;;8.57;58.41;102602.63;6179611;23;20396;-66
2023/01/27 09:04:00;;;;;;;7.00;5.60;;;;;;;8.61;58.26;102587.34;6178942;23;20575;-65
2023/01/27 09:06:26;;;;;;;9.63;6.75;;;;;;;8.63;58.30;102595.31;6178997;23;20139;-66
2023/01/27 09:09:07;;;;;;;11.13;7.18;;;;;;;8.65;58.29;102602.38;6179056;23;20111;-67
2023/01/27 09:11:40;;;;;;;15.23;8.90;;;;;;;8.66;58.24;102598.75;6179137;22;20039;-65
2023/01/27 09:14:07;;;;;;;7.13;5.95;;;;;;;8.65;58.19;102599.69;6179147;23;20025;-66
2023/01/27 09:16:33;;;;;;;9.00;6.38;;;;;;;8.65;58.09;102596.16;6178913;23;20024;-66
2023/01/27 09:19:00;;;;;;;9.02;6.53;;;;;;;8.65;58.07;102605.06;6179849;23;20074;-65
2023/01/27 09:21:27;;;;;;;5.82;5.15;;;;;;;8.66;57.95;102606.81;6179934;22;20340;-66
2023/01/27 09:23:53;;;;;;;9.43;7.00;;;;;;;8.67;57.96;102613.03;6179893;23;20025;-67
2023/01/27 09:26:20;;;;;;;6.90;5.30;;;;;;;8.69;58.20;102608.50;6179186;23;20017;-67
2023/01/27 09:28:47;;;;;;;6.70;5.22;;;;;;;8.74;58.15;102609.22;6179703;23;20073;-66
2023/01/27 09:31:13;;;;;;;6.05;5.18;;;;;;;8.80;58.09;102614.34;6179537;23;20088;-67
2023/01/27 09:33:40;;;;;;;6.68;5.07;;;;;;;8.88;58.14;102615.81;6179663;23;20043;-66
2023/01/27 09:36:14;;;;;;;5.90;5.10;;;;;;;8.97;57.99;102624.50;6153013;22;20013;-68
2023/01/27 09:38:47;;;;;;;5.68;4.63;;;;;;;9.01;57.99;102623.44;6178013;23;20439;-67
2023/01/27 09:41:44;;;;;;;5.38;4.82;;;;;;;9.04;57.73;102623.34;6178914;23;20475;-67
2023/01/27 09:44:55;;;;;;;6.32;4.95;;;;;;;9.04;57.54;102621.53;6180040;23;20014;-67
2023/01/27 09:47:40;;;;;;;6.78;5.25;;;;;;;9.04;57.54;102624.22;6179554;23;20017;-66
2023/01/27 09:50:23;;;;;;;10.17;6.20;;;;;;;9.03;57.44;102625.16;6179787;23;20040;-67
2023/01/27 09:53:24;;;;;;;7.63;5.65;;;;;;;9.02;57.37;102622.53;6179132;23;20028;-67
2023/01/27 09:56:02;;;;;;;5.75;4.90;;;;;;;9.01;57.46;102631.50;6179456;23;20035;-67
2023/01/27 09:58:38;;;;;;;6.93;5.20;;;;;;;9.00;57.28;102632.41;6179332;23;20020;-67
2023/01/27 10:01:41;;;;;;;7.10;5.22;;;;;;;8.98;57.35;102637.84;6179405;23;20048;-67
2023/01/27 10:04:14;;;;;;;6.32;5.15;;;;;;;8.98;57.39;102640.53;6179188;23;20016;-67
2023/01/27 10:06:48;;;;;;;8.02;6.00;;;;;;;8.98;57.32;102628.91;6179153;23;20379;-66
2023/01/27 10:09:44;;;;;;;7.13;5.50;;;;;;;9.00;57.36;102635.09;6179445;23;20452;-67
2023/01/27 10:12:41;;;;;;;7.78;5.47;;;;;;;9.00;57.46;102638.66;6179272;23;20025;-66
2023/01/27 10:15:15;;;;;;;7.63;5.47;;;;;;;9.04;57.26;102634.06;6179846;23;20044;-66
2023/01/27 10:17:54;;;;;;;6.40;5.78;;;;;;;9.06;57.22;102638.44;6179495;23;20058;-66
2023/01/27 10:20:32;;;;;;;6.32;5.50;;;;;;;9.07;57.36;102631.28;6180288;23;20509;-66
2023/01/27 10:23:19;;;;;;;6.90;5.63;;;;;;;9.07;57.40;102647.34;6180467;23;20351;-67
2023/01/27 10:26:13;;;;;;;7.25;6.43;;;;;;;9.01;57.19;102635.03;6180927;23;20503;-67
2023/01/27 10:28:48;;;;;;;8.35;5.95;;;;;;;9.02;57.30;102635.91;6180780;23;20009;-67
2023/01/27 10:31:25;;;;;;;8.07;6.20;;;;;;;9.00;57.27;102645.81;6181280;23;20021;-68
2023/01/27 10:33:55;;;;;;;6.78;6.15;;;;;;;8.97;57.29;102636.09;6181776;23;20017;-66
2023/01/27 10:36:41;;;;;;;7.40;6.00;;;;;;;8.95;57.20;102634.41;6181383;23;20017;-67
2023/01/27 10:39:35;;;;;;;6.50;5.45;;;;;;;8.93;57.13;102623.72;6182015;23;20021;-67
2023/01/27 10:42:11;;;;;;;8.07;6.00;;;;;;;8.92;57.20;102630.03;6181561;23;20023;-67
2023/01/27 10:45:07;;;;;;;9.70;6.05;;;;;;;8.91;57.14;102623.75;6155430;23;20059;-67
2023/01/27 10:47:38;;;;;;;7.73;5.57;;;;;;;8.94;57.24;102611.22;6154583;23;20020;-66
2023/01/27 10:50:12;;;;;;;6.35;5.72;;;;;;;8.95;57.27;102618.31;6181019;23;20273;-67
2023/01/27 10:52:45;;;;;;;6.55;5.85;;;;;;;8.97;57.32;102621.81;6181111;23;20020;-67
2023/01/27 10:55:53;;;;;;;8.43;6.82;;;;;;;9.00;57.24;102613.66;6181293;23;20013;-67
2023/01/27 10:58:44;;;;;;;6.88;5.47;;;;;;;9.06;57.34;102619.69;6180649;23;20063;-67
2023/01/27 11:01:13;;;;;;;7.95;6.05;;;;;;;9.12;57.18;102615.91;6181147;23;20013;-67
2023/01/27 11:03:55;;;;;;;7.35;5.68;;;;;;;9.18;57.43;102616.53;6180439;23;20017;-67
2023/01/27 11:06:27;;;;;;;7.20;5.45;;;;;;;9.23;57.48;102613.69;6180715;23;20014;-67
2023/01/27 11:09:14;;;;;;;7.10;5.55;;;;;;;9.26;57.15;102621.63;6180575;23;20068;-67
2023/01/27 11:11:44;;;;;;;7.47;6.15;;;;;;;9.30;57.20;102612.53;6180225;23;20017;-67
2023/01/27 11:14:24;;;;;;;6.47;5.82;;;;;;;9.33;57.33;102609.72;6180966;23;20021;-67
2023/01/27 11:16:56;;;;;;;6.60;5.80;;;;;;;9.37;56.92;102610.50;6180552;23;20313;-67
2023/01/27 11:19:44;;;;;;;6.65;5.85;;;;;;;9.38;57.14;102612.25;6180754;23;20017;-67
2023/01/27 11:22:18;;;;;;;7.00;5.75;;;;;;;9.38;56.75;102618.47;6180838;23;20019;-67
2023/01/27 11:24:52;;;;;;;7.38;5.97;;;;;;;9.38;56.80;102618.47;6180953;23;20044;-67
2023/01/27 11:27:30;;;;;;;7.30;5.80;;;;;;;9.41;57.02;102612.13;6180321;23;20451;-67
2023/01/27 11:30:02;;;;;;;8.20;6.25;;;;;;;9.44;56.74;102614.69;6180250;23;20024;-67
2023/01/27 11:32:54;;;;;;;6.40;5.70;;;;;;;9.44;57.03;102617.38;6180367;23;20343;-67
2023/01/27 11:35:21;;;;;;;7.93;6.70;;;;;;;9.46;56.64;102612.81;6179827;22;20093;-67
2023/01/27 11:37:50;;;;;;;6.88;5.97;;;;;;;9.46;56.96;102610.13;6180436;23;20021;-67
2023/01/27 11:40:30;;;;;;;7.65;5.82;;;;;;;9.43;56.75;102605.75;6180428;23;20023;-67
2023/01/27 11:42:58;;;;;;;7.93;5.78;;;;;;;9.41;56.57;102607.63;6153791;23;20024;-67
2023/01/27 11:45:26;;;;;;;6.70;5.68;;;;;;;9.39;56.41;102606.81;6180445;23;20066;-67
2023/01/27 11:47:58;;;;;;;5.72;4.80;;;;;;;9.36;56.53;102606.94;6180305;23;20017;-67
2023/01/27 11:50:33;;;;;;;7.47;6.10;;;;;;;9.35;56.61;102613.22;6180268;23;20525;-67
2023/01/27 11:53:13;;;;;;;6.77;5.23;;;;;;;9.34;56.49;102605.25;6180395;23;20017;-67
2023/01/27 11:55:45;;;;;;;6.35;5.38;;;;;;;9.35;56.54;102605.19;6180478;23;20249;-67
2023/01/27 11:58:24;;;;;;;7.38;5.85;;;;;;;9.35;56.56;102605.19;6180367;23;20017;-66
2023/01/27 12:00:58;;;;;;;6.43;5.60;;;;;;;9.36;56.37;102609.63;6180170;23;20084;-67
2023/01/27 12:03:40;;;;;;;5.93;4.63;;;;;;;9.37;56.37;102606.00;6180193;23;20013;-67
2023/01/27 12:06:45;;;;;;;7.40;5.15;;;;;;;9.34;56.30;102598.06;6180129;23;20021;-66
2023/01/27 12:09:38;;;;;;;6.55;5.07;;;;;;;9.37;56.31;102605.13;6180895;23;20519;-66
2023/01/27 12:12:19;;;;;;;5.55;4.90;;;;;;;9.38;56.29;102601.50;6180243;23;20070;-67
2023/01/27 12:14:57;;;;;;;5.88;5.05;;;;;;;9.39;56.42;102593.41;6180236;23;20047;-67
2023/01/27 12:17:30;;;;;;;5.47;4.82;;;;;;;9.43;56.36;102596.84;6180142;23;20024;-67
2023/01/27 12:20:05;;;;;;;5.90;5.22;;;;;;;9.44;56.42;102591.44;6180031;23;20022;-67